Time,TemperatureF,DewpointF,PressureIn,WindDirection,WindDirectionDegrees,WindSpeedMPH,WindSpeedGustMPH,Humidity,HourlyPrecipIn,Conditions,Clouds,dailyrainin,SoftwareType,DateUTC
2013-09-04 00:03:00,68.6,68.6,29.76,SSW,212,2.0,4.0,100,0.00,,,0.00,Wunderground v.1.15,2013-09-04 03:03:00,
2013-09-04 00:08:00,68.6,68.6,29.76,WSW,242,1.0,1.0,100,0.00,,,0.00,Wunderground v.1.15,2013-09-04 03:08:00,
2013-09-04 00:18:00,68.6,68.6,29.75,SSW,210,1.0,3.0,100,0.00,,,0.00,Wunderground v.1.15,2013-09-04 03:18:00,
2013-09-04 00:24:00,68.6,68.6,29.75,SW,229,2.0,3.0,100,0.00,,,0.00,Wunderground v.1.15,2013-09-04 03:24:00,
2013-09-04 00:28:00,68.6,68.6,29.75,WSW,248,2.0,2.0,100,0.00,,,0.00,Wunderground v.1.15,2013-09-04 03:28:00,
2013-09-04 00:33:00,68.6,68.6,29.75,West,260,1.0,4.0,100,0.00,,,0.00,Wunderground v.1.15,2013-09-04 03:33:00,
2013-09-04 00:38:00,68.6,68.6,29.75,SW,225,2.0,3.0,100,0.00,,,0.00,Wunderground v.1.15,2013-09-04 03:38:00,
2013-09-04 00:44:00,68.6,68.6,29.75,SW,215,3.0,3.0,100,0.00,,,0.00,Wunderground v.1.15,2013-09-04 03:44:00,
2013-09-04 00:53:00,68.5,68.5,29.75,SSW,208,2.0,5.0,100,0.00,,,0.00,Wunderground v.1.15,2013-09-04 03:53:00,
2013-09-04 00:58:00,68.5,68.5,29.75,SW,217,2.0,3.0,100,0.00,,,0.00,Wunderground v.1.15,2013-09-04 03:58:00,
2013-09-04 01:03:00,68.5,68.5,29.75,SSW,205,3.0,6.0,100,0.00,,,0.00,Wunderground v.1.15,2013-09-04 04:03:00,
2013-09-04 01:08:00,68.4,68.4,29.75,West,266,4.0,4.0,100,0.00,,,0.00,Wunderground v.1.15,2013-09-04 04:08:00,
2013-09-04 01:13:00,68.4,68.4,29.75,SW,229,3.0,4.0,100,0.00,,,0.00,Wunderground v.1.15,2013-09-04 04:13:00,
2013-09-04 01:18:00,68.4,68.4,29.75,WSW,243,3.0,3.0,100,0.00,,,0.00,Wunderground v.1.15,2013-09-04 04:18:00,
2013-09-04 01:23:00,68.4,68.4,29.75,SSW,209,3.0,6.0,100,0.00,,,0.00,Wunderground v.1.15,2013-09-04 04:23:00,
2013-09-04 01:28:00,68.4,68.4,29.75,West,259,3.0,3.0,100,0.00,,,0.00,Wunderground v.1.15,2013-09-04 04:28:00,
2013-09-04 01:33:00,68.4,68.4,29.75,SW,232,3.0,3.0,100,0.00,,,0.00,Wunderground v.1.15,2013-09-04 04:33:00,
2013-09-04 01:38:00,68.4,68.4,29.75,West,261,2.0,2.0,100,0.00,,,0.00,Wunderground v.1.15,2013-09-04 04:38:00,
2013-09-04 01:48:00,68.5,68.5,29.75,SW,231,2.0,2.0,100,0.00,,,0.00,Wunderground v.1.15,2013-09-04 04:48:00,
2013-09-04 01:53:00,68.5,68.5,29.74,SSW,210,2.0,2.0,100,0.00,,,0.00,Wunderground v.1.15,2013-09-04 04:53:00,
2013-09-04 01:58:00,68.5,68.5,29.75,SW,229,2.0,2.0,100,0.00,,,0.00,Wunderground v.1.15,2013-09-04 04:58:00,
2013-09-04 02:03:00,68.5,68.5,29.75,SW,226,2.0,2.0,100,0.00,,,0.00,Wunderground v.1.15,2013-09-04 05:03:00,
2013-09-04 02:08:00,68.5,68.5,29.74,SW,223,1.0,1.0,100,0.00,,,0.00,Wunderground v.1.15,2013-09-04 05:08:00,
2013-09-04 02:13:00,68.4,68.4,29.75,SSW,202,2.0,4.0,100,0.00,,,0.00,Wunderground v.1.15,2013-09-04 05:13:00,
2013-09-04 02:18:00,68.4,68.4,29.75,WSW,246,2.0,2.0,100,0.00,,,0.00,Wunderground v.1.15,2013-09-04 05:18:00,
2013-09-04 02:23:00,68.3,68.3,29.75,SW,222,1.0,2.0,100,0.00,,,0.00,Wunderground v.1.15,2013-09-04 05:23:00,
2013-09-04 02:33:00,68.3,68.3,29.75,SW,223,2.0,5.0,100,0.00,,,0.00,Wunderground v.1.15,2013-09-04 05:33:00,
2013-09-04 02:38:00,68.1,68.1,29.75,SW,225,2.0,2.0,100,0.00,,,0.00,Wunderground v.1.15,2013-09-04 05:38:00,
2013-09-04 02:43:00,68.1,68.1,29.74,SW,216,3.0,3.0,100,0.00,,,0.00,Wunderground v.1.15,2013-09-04 05:43:00,
2013-09-04 02:48:00,68.0,68.0,29.74,SW,217,3.0,3.0,100,0.00,,,0.00,Wunderground v.1.15,2013-09-04 05:48:00,
2013-09-04 02:53:00,67.8,67.8,29.74,SSW,208,2.0,4.0,100,0.00,,,0.00,Wunderground v.1.15,2013-09-04 05:53:00,
2013-09-04 03:03:00,67.6,67.6,29.74,SW,217,3.0,3.0,100,0.00,,,0.00,Wunderground v.1.15,2013-09-04 06:03:00,
2013-09-04 03:08:00,67.7,67.7,29.73,SSW,207,3.0,4.0,100,0.00,,,0.00,Wunderground v.1.15,2013-09-04 06:08:00,
2013-09-04 03:13:00,67.7,67.7,29.73,SSW,211,3.0,4.0,100,0.00,,,0.00,Wunderground v.1.15,2013-09-04 06:13:00,
2013-09-04 03:18:00,67.8,67.8,29.73,SSW,208,3.0,3.0,100,0.00,,,0.00,Wunderground v.1.15,2013-09-04 06:18:00,
2013-09-04 03:23:00,67.9,67.9,29.73,SSW,201,3.0,3.0,100,0.00,,,0.00,Wunderground v.1.15,2013-09-04 06:23:00,
2013-09-04 03:28:00,67.9,67.9,29.73,SSW,210,3.0,3.0,100,0.00,,,0.00,Wunderground v.1.15,2013-09-04 06:28:00,
2013-09-04 03:33:00,67.9,67.9,29.73,SW,229,3.0,3.0,100,0.00,,,0.00,Wunderground v.1.15,2013-09-04 06:33:00,
2013-09-04 03:43:00,67.8,67.8,29.73,SSW,211,1.0,2.0,100,0.00,,,0.00,Wunderground v.1.15,2013-09-04 06:43:00,
2013-09-04 03:48:00,67.7,67.7,29.72,SSW,210,2.0,2.0,100,0.00,,,0.00,Wunderground v.1.15,2013-09-04 06:48:00,
2013-09-04 03:53:00,67.7,67.7,29.72,SW,214,2.0,4.0,100,0.00,,,0.00,Wunderground v.1.15,2013-09-04 06:53:00,
2013-09-04 03:58:00,67.6,67.6,29.72,SW,214,2.0,3.0,100,0.00,,,0.00,Wunderground v.1.15,2013-09-04 06:58:00,
2013-09-04 04:03:00,67.5,67.5,29.72,SSW,213,2.0,3.0,100,0.00,,,0.00,Wunderground v.1.15,2013-09-04 07:03:00,
2013-09-04 04:08:00,67.5,67.5,29.73,SSW,213,2.0,2.0,100,0.00,,,0.00,Wunderground v.1.15,2013-09-04 07:08:00,
2013-09-04 04:13:00,67.4,67.4,29.73,West,263,1.0,3.0,100,0.00,,,0.00,Wunderground v.1.15,2013-09-04 07:13:00,
2013-09-04 04:23:00,67.4,67.4,29.72,SSW,203,1.0,2.0,100,0.00,,,0.00,Wunderground v.1.15,2013-09-04 07:23:00,
2013-09-04 04:33:00,67.3,67.3,29.72,SW,217,3.0,4.0,100,0.00,,,0.00,Wunderground v.1.15,2013-09-04 07:33:00,
2013-09-04 04:43:00,67.3,67.3,29.72,SSW,206,2.0,2.0,100,0.00,,,0.00,Wunderground v.1.15,2013-09-04 07:43:00,
2013-09-04 04:53:00,67.2,67.2,29.71,SSW,206,2.0,2.0,100,0.00,,,0.00,Wunderground v.1.15,2013-09-04 07:53:00,
2013-09-04 04:58:00,67.2,67.2,29.72,SSW,205,1.0,2.0,100,0.00,,,0.00,Wunderground v.1.15,2013-09-04 07:58:00,
2013-09-04 05:03:00,67.1,67.1,29.72,SSW,209,1.0,2.0,100,0.00,,,0.00,Wunderground v.1.15,2013-09-04 08:03:00,
2013-09-04 05:08:00,67.1,67.1,29.72,SSW,213,2.0,2.0,100,0.00,,,0.00,Wunderground v.1.15,2013-09-04 08:08:00,
2013-09-04 05:13:00,67.1,67.1,29.72,SSW,213,2.0,2.0,100,0.00,,,0.00,Wunderground v.1.15,2013-09-04 08:13:00,
2013-09-04 05:18:00,67.1,67.1,29.72,SSW,213,1.0,2.0,100,0.00,,,0.00,Wunderground v.1.15,2013-09-04 08:18:00,
2013-09-04 05:23:00,67.1,67.1,29.72,SW,223,2.0,3.0,100,0.00,,,0.00,Wunderground v.1.15,2013-09-04 08:23:00,
2013-09-04 05:28:00,67.1,67.1,29.72,SW,220,3.0,3.0,100,0.00,,,0.00,Wunderground v.1.15,2013-09-04 08:28:00,
2013-09-04 05:38:00,67.2,67.2,29.72,West,276,2.0,2.0,100,0.00,,,0.00,Wunderground v.1.15,2013-09-04 08:38:00,
2013-09-04 05:43:00,67.2,67.2,29.72,West,269,1.0,2.0,100,0.00,,,0.00,Wunderground v.1.15,2013-09-04 08:43:00,
2013-09-04 05:53:00,67.2,67.2,29.73,SW,224,2.0,5.0,100,0.00,,,0.00,Wunderground v.1.15,2013-09-04 08:53:00,
2013-09-04 05:58:00,67.3,67.3,29.72,WSW,253,3.0,3.0,100,0.00,,,0.00,Wunderground v.1.15,2013-09-04 08:58:00,
2013-09-04 06:03:00,67.3,67.3,29.72,SW,227,3.0,3.0,100,0.00,,,0.00,Wunderground v.1.15,2013-09-04 09:03:00,
2013-09-04 06:08:00,67.4,67.4,29.72,WSW,251,2.0,2.0,100,0.00,,,0.00,Wunderground v.1.15,2013-09-04 09:08:00,
2013-09-04 06:13:00,67.4,67.4,29.73,West,260,1.0,2.0,100,0.00,,,0.00,Wunderground v.1.15,2013-09-04 09:13:00,
2013-09-04 06:18:00,67.4,67.4,29.73,WSW,257,1.0,1.0,100,0.00,,,0.00,Wunderground v.1.15,2013-09-04 09:18:00,
2013-09-04 06:23:00,67.3,67.3,29.73,SW,229,1.0,2.0,100,0.00,,,0.00,Wunderground v.1.15,2013-09-04 09:23:00,
2013-09-04 06:28:00,67.3,67.3,29.73,SW,230,1.0,2.0,100,0.00,,,0.00,Wunderground v.1.15,2013-09-04 09:28:00,
2013-09-04 06:38:00,67.2,67.2,29.73,West,281,2.0,3.0,100,0.00,,,0.00,Wunderground v.1.15,2013-09-04 09:38:00,
2013-09-04 06:43:00,67.1,67.1,29.74,WSW,242,2.0,3.0,100,0.00,,,0.00,Wunderground v.1.15,2013-09-04 09:43:00,
2013-09-04 06:53:00,67.0,67.0,29.74,SW,230,2.0,5.0,100,0.00,,,0.00,Wunderground v.1.15,2013-09-04 09:53:00,
2013-09-04 06:58:00,67.0,67.0,29.74,SSW,196,2.0,2.0,100,0.00,,,0.00,Wunderground v.1.15,2013-09-04 09:58:00,
2013-09-04 07:03:00,67.0,67.0,29.74,SW,230,2.0,2.0,100,0.00,,,0.00,Wunderground v.1.15,2013-09-04 10:03:00,
2013-09-04 07:08:00,67.0,67.0,29.74,WSW,252,1.0,1.0,100,0.00,,,0.00,Wunderground v.1.15,2013-09-04 10:08:00,
2013-09-04 07:13:00,67.0,67.0,29.74,WSW,257,1.0,2.0,100,0.00,,,0.00,Wunderground v.1.15,2013-09-04 10:13:00,
2013-09-04 07:23:00,67.0,67.0,29.75,SW,217,1.0,1.0,100,0.00,,,0.00,Wunderground v.1.15,2013-09-04 10:23:00,
2013-09-04 07:28:00,67.0,67.0,29.75,WNW,282,1.0,1.0,100,0.00,,,0.00,Wunderground v.1.15,2013-09-04 10:28:00,
2013-09-04 07:33:00,67.0,67.0,29.75,SW,227,1.0,5.0,100,0.00,,,0.00,Wunderground v.1.15,2013-09-04 10:33:00,
2013-09-04 07:43:00,66.9,66.9,29.74,SSW,207,2.0,2.0,100,0.00,,,0.00,Wunderground v.1.15,2013-09-04 10:43:00,
2013-09-04 07:48:00,66.9,66.9,29.74,SW,223,2.0,3.0,100,0.00,,,0.00,Wunderground v.1.15,2013-09-04 10:48:00,
2013-09-04 07:53:00,66.9,66.9,29.74,West,266,3.0,3.0,100,0.00,,,0.00,Wunderground v.1.15,2013-09-04 10:53:00,
2013-09-04 07:58:00,66.9,66.9,29.74,West,281,2.0,4.0,100,0.00,,,0.00,Wunderground v.1.15,2013-09-04 10:58:00,
2013-09-04 08:03:00,67.0,67.0,29.74,SSW,200,3.0,4.0,100,0.00,,,0.00,Wunderground v.1.15,2013-09-04 11:03:00,
2013-09-04 08:08:00,67.0,67.0,29.74,SW,217,3.0,3.0,100,0.00,,,0.00,Wunderground v.1.15,2013-09-04 11:08:00,
2013-09-04 08:13:00,67.1,67.1,29.74,WSW,254,3.0,3.0,100,0.00,,,0.00,Wunderground v.1.15,2013-09-04 11:13:00,
2013-09-04 08:23:00,67.2,67.2,29.73,SW,224,2.0,2.0,100,0.00,,,0.00,Wunderground v.1.15,2013-09-04 11:23:00,
2013-09-04 08:28:00,67.2,67.2,29.73,SSW,206,3.0,3.0,100,0.00,,,0.00,Wunderground v.1.15,2013-09-04 11:28:00,
2013-09-04 08:33:00,67.3,67.3,29.73,SW,215,4.0,4.0,100,0.00,,,0.00,Wunderground v.1.15,2013-09-04 11:33:00,
2013-09-04 08:43:00,67.3,67.3,29.74,WNW,291,4.0,5.0,100,0.00,,,0.00,Wunderground v.1.15,2013-09-04 11:43:00,
2013-09-04 08:48:00,67.3,67.3,29.74,SW,232,4.0,4.0,100,0.00,,,0.00,Wunderground v.1.15,2013-09-04 11:48:00,
2013-09-04 08:53:00,67.2,67.2,29.74,SW,226,4.0,4.0,100,0.00,,,0.00,Wunderground v.1.15,2013-09-04 11:53:00,
2013-09-04 08:58:00,67.2,67.2,29.74,SSW,205,4.0,7.0,100,0.00,,,0.00,Wunderground v.1.15,2013-09-04 11:58:00,
2013-09-04 09:03:00,67.3,67.3,29.74,SW,229,4.0,7.0,100,0.00,,,0.00,Wunderground v.1.15,2013-09-04 12:03:00,
2013-09-04 09:08:00,67.3,67.3,29.73,SW,225,4.0,4.0,100,0.00,,,0.00,Wunderground v.1.15,2013-09-04 12:08:00,
2013-09-04 09:13:00,67.3,67.3,29.74,West,269,4.0,4.0,100,0.00,,,0.00,Wunderground v.1.15,2013-09-04 12:13:00,
2013-09-04 09:18:00,67.3,67.3,29.74,SW,225,4.0,4.0,100,0.00,,,0.00,Wunderground v.1.15,2013-09-04 12:18:00,
2013-09-04 09:23:00,67.2,67.2,29.74,SSW,192,4.0,4.0,100,0.00,,,0.00,Wunderground v.1.15,2013-09-04 12:23:00,
2013-09-04 09:28:00,67.3,67.3,29.73,SSW,207,4.0,4.0,100,0.00,,,0.00,Wunderground v.1.15,2013-09-04 12:28:00,
2013-09-04 09:33:00,67.3,67.3,29.73,SSW,210,3.0,4.0,100,0.00,,,0.00,Wunderground v.1.15,2013-09-04 12:33:00,
2013-09-04 09:38:00,67.4,67.4,29.73,SW,215,4.0,5.0,100,0.00,,,0.00,Wunderground v.1.15,2013-09-04 12:38:00,
2013-09-04 09:43:00,67.4,67.4,29.74,West,265,4.0,5.0,100,0.00,,,0.00,Wunderground v.1.15,2013-09-04 12:43:00,
2013-09-04 09:48:00,67.5,67.5,29.73,South,190,3.0,3.0,100,0.00,,,0.00,Wunderground v.1.15,2013-09-04 12:48:00,
2013-09-04 09:53:00,67.6,67.6,29.73,SW,230,3.0,3.0,100,0.00,,,0.00,Wunderground v.1.15,2013-09-04 12:53:00,
2013-09-04 09:58:00,67.9,67.9,29.73,WNW,290,3.0,3.0,100,0.00,,,0.00,Wunderground v.1.15,2013-09-04 12:58:00,
2013-09-04 10:03:00,68.1,67.8,29.72,SW,219,3.0,6.0,99,0.00,,,0.00,Wunderground v.1.15,2013-09-04 13:03:00,
2013-09-04 10:08:00,68.3,68.0,29.72,SSW,205,3.0,3.0,99,0.00,,,0.00,Wunderground v.1.15,2013-09-04 13:08:00,
2013-09-04 10:18:00,68.7,68.1,29.72,WSW,246,4.0,4.0,98,0.00,,,0.00,Wunderground v.1.15,2013-09-04 13:18:00,
2013-09-04 10:23:00,68.6,68.0,29.72,SSW,207,3.0,4.0,98,0.00,,,0.00,Wunderground v.1.15,2013-09-04 13:23:00,
2013-09-04 10:28:00,68.6,68.0,29.71,SSE,166,3.0,3.0,98,0.00,,,0.00,Wunderground v.1.15,2013-09-04 13:28:00,
2013-09-04 10:33:00,68.5,67.6,29.72,SW,215,3.0,3.0,97,0.00,,,0.00,Wunderground v.1.15,2013-09-04 13:33:00,
2013-09-04 10:38:00,68.3,67.4,29.72,SW,229,4.0,4.0,97,0.00,,,0.00,Wunderground v.1.15,2013-09-04 13:38:00,
2013-09-04 10:43:00,68.1,67.2,29.72,SW,226,4.0,7.0,97,0.00,,,0.00,Wunderground v.1.15,2013-09-04 13:43:00,
2013-09-04 10:48:00,68.0,67.1,29.72,SW,230,4.0,5.0,97,0.00,,,0.00,Wunderground v.1.15,2013-09-04 13:48:00,
2013-09-04 10:53:00,67.9,67.3,29.72,SW,218,3.0,5.0,98,0.00,,,0.00,Wunderground v.1.15,2013-09-04 13:53:00,
2013-09-04 10:58:00,67.8,67.2,29.72,SSW,207,3.0,4.0,98,0.00,,,0.01,Wunderground v.1.15,2013-09-04 13:58:00,
2013-09-04 11:03:00,67.7,67.1,29.72,SW,219,3.0,4.0,98,0.14,,,0.02,Wunderground v.1.15,2013-09-04 14:03:00,
2013-09-04 11:08:00,67.6,67.3,29.72,SSW,207,3.0,4.0,99,0.09,,,0.02,Wunderground v.1.15,2013-09-04 14:08:00,
2013-09-04 11:13:00,67.5,67.2,29.72,SW,221,4.0,4.0,99,0.05,,,0.02,Wunderground v.1.15,2013-09-04 14:13:00,
2013-09-04 11:18:00,67.6,67.6,29.72,SW,222,3.0,3.0,100,0.04,,,0.02,Wunderground v.1.15,2013-09-04 14:18:00,
2013-09-04 11:23:00,67.7,67.7,29.72,SW,220,3.0,3.0,100,0.00,,,0.02,Wunderground v.1.15,2013-09-04 14:23:00,
2013-09-04 11:28:00,67.5,67.2,29.72,SSW,206,3.0,4.0,99,0.00,,,0.02,Wunderground v.1.15,2013-09-04 14:28:00,
2013-09-04 11:33:00,67.3,67.0,29.72,West,273,3.0,5.0,99,0.00,,,0.02,Wunderground v.1.15,2013-09-04 14:33:00,
2013-09-04 11:38:00,67.2,66.9,29.72,WSW,243,4.0,7.0,99,0.00,,,0.02,Wunderground v.1.15,2013-09-04 14:38:00,
2013-09-04 11:43:00,67.2,66.9,29.71,NW,318,4.0,7.0,99,0.00,,,0.02,Wunderground v.1.15,2013-09-04 14:43:00,
2013-09-04 11:53:00,67.7,67.4,29.71,West,259,4.0,7.0,99,0.07,,,0.03,Wunderground v.1.15,2013-09-04 14:53:00,
2013-09-04 11:58:00,67.7,67.1,29.71,WNW,296,4.0,14.0,98,0.05,,,0.03,Wunderground v.1.15,2013-09-04 14:58:00,
2013-09-04 12:03:00,67.6,67.0,29.71,WSW,255,5.0,14.0,98,0.00,,,0.03,Wunderground v.1.15,2013-09-04 15:03:00,
2013-09-04 12:08:00,67.5,66.9,29.71,WNW,283,5.0,6.0,98,0.00,,,0.03,Wunderground v.1.15,2013-09-04 15:08:00,
2013-09-04 12:13:00,67.4,66.5,29.70,West,268,6.0,8.0,97,0.00,,,0.03,Wunderground v.1.15,2013-09-04 15:13:00,
2013-09-04 12:18:00,67.4,66.5,29.70,WSW,254,7.0,7.0,97,0.00,,,0.03,Wunderground v.1.15,2013-09-04 15:18:00,
2013-09-04 12:23:00,67.7,66.8,29.70,WSW,242,7.0,7.0,97,0.00,,,0.03,Wunderground v.1.15,2013-09-04 15:23:00,
2013-09-04 12:28:00,68.1,67.2,29.69,West,262,6.0,6.0,97,0.00,,,0.03,Wunderground v.1.15,2013-09-04 15:28:00,
2013-09-04 12:33:00,68.5,67.3,29.69,West,274,7.0,7.0,96,0.00,,,0.03,Wunderground v.1.15,2013-09-04 15:33:00,
2013-09-04 12:38:00,68.9,67.7,29.69,West,261,7.0,7.0,96,0.00,,,0.03,Wunderground v.1.15,2013-09-04 15:38:00,
2013-09-04 12:43:00,69.1,67.6,29.69,West,271,6.0,7.0,95,0.00,,,0.03,Wunderground v.1.15,2013-09-04 15:43:00,
2013-09-04 12:48:00,69.2,68.0,29.69,West,265,6.0,8.0,96,0.00,,,0.03,Wunderground v.1.15,2013-09-04 15:48:00,
2013-09-04 12:58:00,69.2,68.0,29.69,WSW,244,3.0,3.0,96,0.00,,,0.03,Wunderground v.1.15,2013-09-04 15:58:00,
2013-09-04 13:03:00,69.0,67.5,29.70,West,277,3.0,4.0,95,0.00,,,0.03,Wunderground v.1.15,2013-09-04 16:03:00,
2013-09-04 13:13:00,68.6,67.4,29.69,West,273,3.0,7.0,96,0.00,,,0.03,Wunderground v.1.15,2013-09-04 16:13:00,
2013-09-04 13:23:00,68.3,67.4,29.69,West,270,5.0,6.0,97,0.00,,,0.03,Wunderground v.1.15,2013-09-04 16:23:00,
2013-09-04 13:28:00,68.3,67.4,29.69,WSW,238,6.0,6.0,97,0.00,,,0.03,Wunderground v.1.15,2013-09-04 16:28:00,
2013-09-04 13:33:00,68.6,67.7,29.68,WSW,256,6.0,6.0,97,0.00,,,0.03,Wunderground v.1.15,2013-09-04 16:33:00,
2013-09-04 13:38:00,68.8,67.6,29.68,WSW,256,5.0,6.0,96,0.00,,,0.03,Wunderground v.1.15,2013-09-04 16:38:00,
2013-09-04 13:43:00,68.7,67.2,29.68,SW,231,6.0,6.0,95,0.00,,,0.03,Wunderground v.1.15,2013-09-04 16:43:00,
2013-09-04 13:48:00,68.6,67.4,29.68,West,274,6.0,6.0,96,0.00,,,0.03,Wunderground v.1.15,2013-09-04 16:48:00,
2013-09-04 13:53:00,68.5,67.3,29.68,West,269,5.0,8.0,96,0.00,,,0.03,Wunderground v.1.15,2013-09-04 16:53:00,
2013-09-04 13:58:00,68.3,67.1,29.68,SSW,213,7.0,7.0,96,0.00,,,0.03,Wunderground v.1.15,2013-09-04 16:58:00,
2013-09-04 14:03:00,68.3,67.1,29.68,West,268,7.0,7.0,96,0.00,,,0.03,Wunderground v.1.15,2013-09-04 17:03:00,
2013-09-04 14:08:00,68.3,67.1,29.68,West,280,7.0,7.0,96,0.00,,,0.03,Wunderground v.1.15,2013-09-04 17:08:00,
2013-09-04 14:13:00,68.4,67.2,29.68,WSW,240,7.0,7.0,96,0.00,,,0.03,Wunderground v.1.15,2013-09-04 17:13:00,
2013-09-04 14:18:00,68.4,67.2,29.68,West,268,7.0,12.0,96,0.00,,,0.03,Wunderground v.1.15,2013-09-04 17:18:00,
2013-09-04 14:23:00,68.5,67.6,29.67,WNW,286,7.0,12.0,97,0.00,,,0.03,Wunderground v.1.15,2013-09-04 17:23:00,
2013-09-04 14:28:00,68.9,68.0,29.67,West,273,7.0,7.0,97,0.00,,,0.03,Wunderground v.1.15,2013-09-04 17:28:00,
2013-09-04 14:33:00,69.4,67.9,29.67,WNW,283,6.0,7.0,95,0.00,,,0.03,Wunderground v.1.15,2013-09-04 17:33:00,
2013-09-04 14:38:00,69.5,68.0,29.67,WSW,242,5.0,5.0,95,0.00,,,0.03,Wunderground v.1.15,2013-09-04 17:38:00,
2013-09-04 14:43:00,69.9,68.4,29.67,West,272,5.0,7.0,95,0.00,,,0.03,Wunderground v.1.15,2013-09-04 17:43:00,
2013-09-04 14:48:00,69.8,67.7,29.67,West,271,6.0,11.0,93,0.00,,,0.03,Wunderground v.1.15,2013-09-04 17:48:00,
2013-09-04 14:58:00,69.2,67.1,29.68,West,270,10.0,10.0,93,0.00,,,0.03,Wunderground v.1.15,2013-09-04 17:58:00,
2013-09-04 15:03:00,68.7,66.9,29.68,WSW,254,10.0,10.0,94,0.00,,,0.03,Wunderground v.1.15,2013-09-04 18:03:00,
2013-09-04 15:08:00,68.4,66.6,29.68,West,267,9.0,10.0,94,0.00,,,0.03,Wunderground v.1.15,2013-09-04 18:08:00,
2013-09-04 15:13:00,68.6,67.1,29.68,WNW,284,10.0,10.0,95,0.00,,,0.03,Wunderground v.1.15,2013-09-04 18:13:00,
2013-09-04 15:23:00,69.9,67.8,29.67,SW,229,10.0,10.0,93,0.00,,,0.03,Wunderground v.1.15,2013-09-04 18:23:00,
2013-09-04 15:28:00,70.3,67.5,29.67,WSW,250,10.0,11.0,91,0.00,,,0.03,Wunderground v.1.15,2013-09-04 18:28:00,
2013-09-04 15:33:00,70.4,67.6,29.67,West,262,10.0,11.0,91,0.00,,,0.03,Wunderground v.1.15,2013-09-04 18:33:00,
2013-09-04 15:38:00,70.5,67.7,29.67,West,271,9.0,9.0,91,0.00,,,0.03,Wunderground v.1.15,2013-09-04 18:38:00,
2013-09-04 15:43:00,70.6,67.8,29.67,WNW,282,8.0,9.0,91,0.00,,,0.03,Wunderground v.1.15,2013-09-04 18:43:00,
2013-09-04 15:48:00,70.6,67.2,29.67,West,276,8.0,8.0,89,0.00,,,0.03,Wunderground v.1.15,2013-09-04 18:48:00,
2013-09-04 15:53:00,70.3,67.5,29.67,WNW,300,7.0,8.0,91,0.00,,,0.03,Wunderground v.1.15,2013-09-04 18:53:00,
2013-09-04 15:58:00,70.7,68.6,29.67,WNW,286,6.0,6.0,93,0.00,,,0.03,Wunderground v.1.15,2013-09-04 18:58:00,
2013-09-04 16:03:00,71.0,68.6,29.67,SW,235,7.0,7.0,92,0.00,,,0.03,Wunderground v.1.15,2013-09-04 19:03:00,
2013-09-04 16:08:00,71.0,67.6,29.67,West,273,8.0,9.0,89,0.00,,,0.03,Wunderground v.1.15,2013-09-04 19:08:00,
2013-09-04 16:13:00,70.8,67.4,29.67,West,259,9.0,12.0,89,0.00,,,0.03,Wunderground v.1.15,2013-09-04 19:13:00,
2013-09-04 16:23:00,71.7,68.3,29.67,WSW,242,6.0,9.0,89,0.00,,,0.03,Wunderground v.1.15,2013-09-04 19:23:00,
2013-09-04 16:28:00,71.5,67.4,29.67,West,268,5.0,5.0,87,0.00,,,0.03,Wunderground v.1.15,2013-09-04 19:28:00,
2013-09-04 16:33:00,71.9,68.8,29.67,West,264,5.0,5.0,90,0.00,,,0.03,Wunderground v.1.15,2013-09-04 19:33:00,
2013-09-04 16:38:00,72.2,68.1,29.67,SW,236,5.0,5.0,87,0.00,,,0.03,Wunderground v.1.15,2013-09-04 19:38:00,
2013-09-04 16:43:00,72.0,67.6,29.67,SW,221,7.0,7.0,86,0.00,,,0.03,Wunderground v.1.15,2013-09-04 19:43:00,
2013-09-04 16:53:00,71.9,66.8,29.67,West,272,7.0,9.0,84,0.00,,,0.03,Wunderground v.1.15,2013-09-04 19:53:00,
2013-09-04 16:58:00,72.3,68.2,29.67,West,278,7.0,7.0,87,0.00,,,0.03,Wunderground v.1.15,2013-09-04 19:58:00,
2013-09-04 17:03:00,72.4,67.3,29.67,WNW,294,5.0,9.0,84,0.00,,,0.03,Wunderground v.1.15,2013-09-04 20:03:00,
2013-09-04 17:08:00,72.2,67.8,29.67,WSW,258,7.0,7.0,86,0.00,,,0.03,Wunderground v.1.15,2013-09-04 20:08:00,
2013-09-04 17:13:00,72.1,67.3,29.67,West,267,6.0,7.0,85,0.00,,,0.03,Wunderground v.1.15,2013-09-04 20:13:00,
2013-09-04 17:23:00,72.0,67.6,29.67,SSW,209,5.0,11.0,86,0.00,,,0.03,Wunderground v.1.15,2013-09-04 20:23:00,
2013-09-04 17:28:00,71.6,67.2,29.67,WSW,252,6.0,6.0,86,0.00,,,0.03,Wunderground v.1.15,2013-09-04 20:28:00,
2013-09-04 17:33:00,71.5,67.4,29.67,West,265,6.0,6.0,87,0.00,,,0.03,Wunderground v.1.15,2013-09-04 20:33:00,
2013-09-04 17:38:00,71.9,67.5,29.67,West,277,6.0,7.0,86,0.00,,,0.03,Wunderground v.1.15,2013-09-04 20:38:00,
2013-09-04 17:43:00,72.2,67.8,29.67,West,277,5.0,7.0,86,0.00,,,0.03,Wunderground v.1.15,2013-09-04 20:43:00,
2013-09-04 17:48:00,72.1,67.0,29.67,WSW,240,5.0,5.0,84,0.00,,,0.03,Wunderground v.1.15,2013-09-04 20:48:00,
2013-09-04 17:53:00,72.0,67.2,29.67,West,265,6.0,6.0,85,0.00,,,0.03,Wunderground v.1.15,2013-09-04 20:53:00,
2013-09-04 17:58:00,71.8,66.7,29.67,West,277,6.0,9.0,84,0.00,,,0.03,Wunderground v.1.15,2013-09-04 20:58:00,
2013-09-04 18:08:00,71.6,66.5,29.67,West,273,6.0,8.0,84,0.00,,,0.03,Wunderground v.1.15,2013-09-04 21:08:00,
2013-09-04 18:13:00,71.3,66.2,29.67,WSW,244,8.0,9.0,84,0.00,,,0.03,Wunderground v.1.15,2013-09-04 21:13:00,
2013-09-04 18:18:00,71.3,66.6,29.67,WSW,242,7.0,7.0,85,0.00,,,0.03,Wunderground v.1.15,2013-09-04 21:18:00,
2013-09-04 18:23:00,71.0,66.3,29.67,WSW,248,6.0,7.0,85,0.00,,,0.03,Wunderground v.1.15,2013-09-04 21:23:00,
2013-09-04 18:28:00,70.5,65.8,29.68,WSW,257,8.0,10.0,85,0.00,,,0.03,Wunderground v.1.15,2013-09-04 21:28:00,
2013-09-04 18:33:00,70.1,65.7,29.68,West,266,8.0,10.0,86,0.00,,,0.03,Wunderground v.1.15,2013-09-04 21:33:00,
2013-09-04 18:38:00,70.0,65.6,29.68,West,267,8.0,8.0,86,0.00,,,0.03,Wunderground v.1.15,2013-09-04 21:38:00,
2013-09-04 18:43:00,69.8,65.1,29.68,WSW,258,8.0,10.0,85,0.00,,,0.03,Wunderground v.1.15,2013-09-04 21:43:00,
2013-09-04 18:48:00,69.6,64.9,29.68,West,266,8.0,8.0,85,0.00,,,0.03,Wunderground v.1.15,2013-09-04 21:48:00,
2013-09-04 18:53:00,69.4,65.0,29.68,West,267,8.0,8.0,86,0.00,,,0.03,Wunderground v.1.15,2013-09-04 21:53:00,
2013-09-04 18:58:00,69.2,64.8,29.69,WSW,254,7.0,8.0,86,0.00,,,0.03,Wunderground v.1.15,2013-09-04 21:58:00,
2013-09-04 19:03:00,68.9,64.9,29.69,WSW,254,8.0,8.0,87,0.00,,,0.03,Wunderground v.1.15,2013-09-04 22:03:00,
2013-09-04 19:08:00,68.6,64.6,29.69,West,262,9.0,10.0,87,0.00,,,0.03,Wunderground v.1.15,2013-09-04 22:08:00,
2013-09-04 19:13:00,68.3,64.6,29.70,West,266,10.0,10.0,88,0.00,,,0.03,Wunderground v.1.15,2013-09-04 22:13:00,
2013-09-04 19:18:00,68.0,64.3,29.70,West,262,9.0,9.0,88,0.00,,,0.03,Wunderground v.1.15,2013-09-04 22:18:00,
2013-09-04 19:23:00,67.6,64.2,29.71,West,277,9.0,10.0,89,0.00,,,0.03,Wunderground v.1.15,2013-09-04 22:23:00,
2013-09-04 19:28:00,67.2,64.2,29.71,West,263,8.0,8.0,90,0.00,,,0.03,Wunderground v.1.15,2013-09-04 22:28:00,
2013-09-04 19:33:00,66.9,64.2,29.71,West,277,7.0,8.0,91,0.00,,,0.03,Wunderground v.1.15,2013-09-04 22:33:00,
2013-09-04 19:38:00,66.7,63.7,29.71,WNW,286,8.0,8.0,90,0.00,,,0.03,Wunderground v.1.15,2013-09-04 22:38:00,
2013-09-04 19:43:00,66.6,63.6,29.71,West,271,9.0,9.0,90,0.00,,,0.03,Wunderground v.1.15,2013-09-04 22:43:00,
2013-09-04 19:48:00,66.4,63.4,29.72,WSW,243,8.0,8.0,90,0.00,,,0.03,Wunderground v.1.15,2013-09-04 22:48:00,
2013-09-04 19:53:00,66.2,63.5,29.72,West,279,8.0,11.0,91,0.00,,,0.03,Wunderground v.1.15,2013-09-04 22:53:00,
2013-09-04 19:58:00,66.1,63.4,29.72,West,271,8.0,8.0,91,0.00,,,0.03,Wunderground v.1.15,2013-09-04 22:58:00,
2013-09-04 20:03:00,65.8,63.1,29.72,West,265,8.0,8.0,91,0.00,,,0.03,Wunderground v.1.15,2013-09-04 23:03:00,
2013-09-04 20:08:00,65.6,63.2,29.73,WSW,255,8.0,8.0,92,0.00,,,0.03,Wunderground v.1.15,2013-09-04 23:08:00,
2013-09-04 20:13:00,65.5,63.1,29.73,West,262,7.0,8.0,92,0.00,,,0.03,Wunderground v.1.15,2013-09-04 23:13:00,
2013-09-04 20:18:00,65.3,63.2,29.73,WSW,254,7.0,8.0,93,0.00,,,0.03,Wunderground v.1.15,2013-09-04 23:18:00,
2013-09-04 20:23:00,65.3,63.2,29.73,West,271,7.0,8.0,93,0.00,,,0.03,Wunderground v.1.15,2013-09-04 23:23:00,
2013-09-04 20:28:00,65.1,63.0,29.73,West,262,6.0,6.0,93,0.00,,,0.03,Wunderground v.1.15,2013-09-04 23:28:00,
2013-09-04 20:33:00,65.0,63.2,29.73,West,270,7.0,7.0,94,0.00,,,0.03,Wunderground v.1.15,2013-09-04 23:33:00,
2013-09-04 20:38:00,64.9,63.1,29.73,West,263,6.0,6.0,94,0.00,,,0.03,Wunderground v.1.15,2013-09-04 23:38:00,
2013-09-04 20:43:00,64.7,62.9,29.73,West,259,5.0,6.0,94,0.00,,,0.03,Wunderground v.1.15,2013-09-04 23:43:00,
2013-09-04 20:48:00,64.6,63.1,29.74,West,259,5.0,5.0,95,0.00,,,0.03,Wunderground v.1.15,2013-09-04 23:48:00,
2013-09-04 20:53:00,64.5,63.0,29.74,West,271,5.0,5.0,95,0.00,,,0.03,Wunderground v.1.15,2013-09-04 23:53:00,
2013-09-04 20:58:00,64.4,62.9,29.74,WSW,253,5.0,5.0,95,0.00,,,0.03,Wunderground v.1.15,2013-09-04 23:58:00,
2013-09-04 21:03:00,64.3,62.8,29.74,WNW,285,5.0,5.0,95,0.00,,,0.03,Wunderground v.1.15,2013-09-05 00:03:00,
2013-09-04 21:13:00,64.0,62.8,29.74,West,267,4.0,4.0,96,0.00,,,0.03,Wunderground v.1.15,2013-09-05 00:13:00,
2013-09-04 21:18:00,63.9,62.7,29.75,West,263,3.0,3.0,96,0.00,,,0.03,Wunderground v.1.15,2013-09-05 00:18:00,
2013-09-04 21:23:00,63.8,62.9,29.75,West,272,3.0,3.0,97,0.00,,,0.03,Wunderground v.1.15,2013-09-05 00:23:00,
2013-09-04 21:28:00,63.7,62.8,29.75,West,261,4.0,5.0,97,0.00,,,0.03,Wunderground v.1.15,2013-09-05 00:28:00,
2013-09-04 21:33:00,63.8,62.9,29.75,West,269,5.0,6.0,97,0.00,,,0.03,Wunderground v.1.15,2013-09-05 00:33:00,
2013-09-04 21:38:00,63.9,63.0,29.75,WNW,288,5.0,6.0,97,0.00,,,0.03,Wunderground v.1.15,2013-09-05 00:38:00,
2013-09-04 21:43:00,63.8,62.9,29.75,West,265,5.0,6.0,97,0.00,,,0.03,Wunderground v.1.15,2013-09-05 00:43:00,
2013-09-04 21:53:00,63.9,63.0,29.75,West,280,4.0,5.0,97,0.00,,,0.03,Wunderground v.1.15,2013-09-05 00:53:00,
2013-09-04 21:58:00,63.8,62.9,29.76,West,275,3.0,5.0,97,0.00,,,0.03,Wunderground v.1.15,2013-09-05 00:58:00,
2013-09-04 22:03:00,63.8,62.9,29.76,West,261,3.0,5.0,97,0.00,,,0.03,Wunderground v.1.15,2013-09-05 01:03:00,
2013-09-04 22:08:00,63.8,62.9,29.76,WNW,290,3.0,3.0,97,0.00,,,0.03,Wunderground v.1.15,2013-09-05 01:08:00,
2013-09-04 22:13:00,63.9,63.0,29.76,West,268,4.0,4.0,97,0.00,,,0.03,Wunderground v.1.15,2013-09-05 01:13:00,
2013-09-04 22:18:00,64.0,62.8,29.76,West,259,4.0,4.0,96,0.00,,,0.03,Wunderground v.1.15,2013-09-05 01:18:00,
2013-09-04 22:28:00,64.1,62.9,29.76,West,271,5.0,5.0,96,0.00,,,0.03,Wunderground v.1.15,2013-09-05 01:28:00,
2013-09-04 22:33:00,64.1,62.6,29.77,West,270,5.0,5.0,95,0.00,,,0.03,Wunderground v.1.15,2013-09-05 01:33:00,
2013-09-04 22:38:00,64.0,62.5,29.77,West,273,4.0,4.0,95,0.00,,,0.03,Wunderground v.1.15,2013-09-05 01:38:00,
2013-09-04 22:43:00,64.0,62.8,29.77,West,266,4.0,4.0,96,0.00,,,0.03,Wunderground v.1.15,2013-09-05 01:43:00,
2013-09-04 22:48:00,64.0,62.8,29.77,West,268,4.0,6.0,96,0.00,,,0.03,Wunderground v.1.15,2013-09-05 01:48:00,
2013-09-04 22:53:00,64.0,62.8,29.77,West,273,5.0,6.0,96,0.00,,,0.03,Wunderground v.1.15,2013-09-05 01:53:00,
2013-09-04 22:58:00,64.0,62.5,29.77,West,273,5.0,6.0,95,0.00,,,0.03,Wunderground v.1.15,2013-09-05 01:58:00,
2013-09-04 23:03:00,64.0,62.8,29.78,West,265,5.0,7.0,96,0.00,,,0.03,Wunderground v.1.15,2013-09-05 02:03:00,
2013-09-04 23:08:00,64.0,62.8,29.78,West,270,6.0,6.0,96,0.00,,,0.03,Wunderground v.1.15,2013-09-05 02:08:00,
2013-09-04 23:18:00,63.9,62.7,29.78,West,273,4.0,4.0,96,0.00,,,0.03,Wunderground v.1.15,2013-09-05 02:18:00,
2013-09-04 23:23:00,63.8,62.6,29.78,West,281,3.0,4.0,96,0.00,,,0.03,Wunderground v.1.15,2013-09-05 02:23:00,
2013-09-04 23:28:00,63.8,62.9,29.78,West,265,3.0,3.0,97,0.00,,,0.03,Wunderground v.1.15,2013-09-05 02:28:00,
2013-09-04 23:33:00,63.8,62.9,29.78,West,279,4.0,4.0,97,0.00,,,0.03,Wunderground v.1.15,2013-09-05 02:33:00,
2013-09-04 23:38:00,63.9,62.7,29.78,WNW,285,4.0,5.0,96,0.00,,,0.03,Wunderground v.1.15,2013-09-05 02:38:00,
2013-09-04 23:43:00,64.1,62.9,29.78,West,277,5.0,5.0,96,0.00,,,0.03,Wunderground v.1.15,2013-09-05 02:43:00,
2013-09-04 23:53:00,64.2,62.7,29.78,West,275,4.0,5.0,95,0.00,,,0.03,Wunderground v.1.15,2013-09-05 02:53:00,
2013-09-04 23:58:00,64.1,62.6,29.78,WSW,241,4.0,4.0,95,0.00,,,0.03,Wunderground v.1.15,2013-09-05 02:58:00,